createdAt,value
2019-04-22T00:02:24.673Z,51.73
2019-04-22T00:05:04.746Z,50.69
2019-04-22T00:07:53.238Z,50.77
2019-04-22T00:10:30.543Z,51.24
2019-04-22T00:13:11.334Z,51.93
2019-04-22T00:15:19.991Z,52.42
2019-04-22T00:18:16.556Z,52.77
2019-04-22T00:20:30.797Z,53.03
2019-04-22T00:23:03.758Z,53.06
2019-04-22T00:25:34.721Z,53.04
2019-04-22T00:28:08.240Z,53.28
2019-04-22T00:30:36.054Z,53.59
2019-04-22T00:33:08.049Z,53.48
2019-04-22T00:35:41.343Z,53.83
2019-04-22T00:38:20.453Z,53.83
2019-04-22T00:40:46.088Z,53.40
2019-04-22T00:43:19.638Z,53.07
2019-04-22T00:48:20.634Z,53.07
2019-04-22T00:56:17.183Z,53.49
2019-04-22T01:03:55.501Z,53.12
2019-04-22T01:06:21.456Z,53.76
2019-04-22T01:11:29.935Z,53.36
2019-04-22T01:13:55.836Z,53.21
2019-04-22T01:18:54.864Z,53.63
2019-04-22T01:21:36.874Z,53.72
2019-04-22T01:23:57.577Z,54.02
2019-04-22T01:26:25.475Z,54.23
2019-04-22T01:28:55.522Z,54.22
2019-04-22T01:31:19.527Z,54.27
2019-04-22T01:33:58.598Z,54.49
2019-04-22T01:36:38.762Z,55.20
2019-04-22T01:39:09.353Z,55.48
2019-04-22T01:42:01.010Z,55.57
2019-04-22T01:44:27.929Z,56.74
2019-04-22T01:49:25.756Z,56.89
2019-04-22T01:54:29.692Z,57.33
2019-04-22T01:56:53.197Z,57.17
2019-04-22T01:59:18.233Z,57.13
2019-04-22T02:01:55.783Z,56.84
2019-04-22T02:04:33.560Z,56.79
2019-04-22T02:06:59.823Z,56.49
2019-04-22T02:09:38.392Z,56.52
2019-04-22T02:14:36.512Z,56.63
2019-04-22T02:19:35.699Z,56.74
2019-04-22T02:22:11.467Z,56.71
2019-04-22T02:24:46.730Z,56.80
2019-04-22T02:29:44.262Z,57.11
2019-04-22T02:32:28.041Z,57.99
2019-04-22T02:35:03.706Z,57.99
2019-04-22T02:37:29.621Z,57.86
2019-04-22T02:47:20.657Z,57.27
2019-04-22T02:49:53.622Z,57.28
2019-04-22T02:52:35.419Z,57.52
2019-04-22T03:00:05.664Z,57.10
2019-04-22T03:02:46.156Z,56.89
2019-04-22T03:07:32.273Z,57.79
2019-04-22T03:10:09.074Z,57.20
2019-04-22T03:12:33.245Z,57.39
2019-04-22T03:15:09.499Z,57.22
2019-04-22T03:20:08.495Z,57.10
2019-04-22T03:23:05.695Z,57.35
2019-04-22T03:27:40.158Z,57.70
2019-04-22T03:37:50.581Z,59.51
2019-04-22T03:45:32.184Z,60.15
2019-04-22T03:48:05.239Z,59.98
2019-04-22T03:53:21.002Z,60.64
2019-04-22T03:55:29.174Z,60.64
2019-04-22T04:03:09.763Z,60.12
2019-04-22T04:05:45.578Z,59.93
2019-04-22T04:08:14.776Z,60.00
2019-04-22T04:15:55.747Z,59.94
2019-04-22T04:18:18.800Z,60.62
2019-04-22T04:25:54.309Z,59.54
2019-04-22T04:28:39.744Z,59.54
2019-04-22T04:31:09.633Z,59.29
2019-04-22T04:33:36.212Z,58.06
2019-04-22T04:36:02.594Z,58.06
2019-04-22T04:38:41.205Z,57.62
2019-04-22T04:41:06.095Z,57.09
2019-04-22T04:43:48.144Z,56.69
2019-04-22T04:46:06.481Z,56.84
2019-04-22T04:51:15.990Z,56.23
2019-04-22T04:53:33.730Z,56.14
2019-04-22T04:56:29.824Z,56.23
2019-04-22T04:59:05.384Z,55.90
2019-04-22T05:01:24.698Z,55.42
2019-04-22T05:11:24.979Z,55.41
2019-04-22T05:18:50.960Z,53.91
2019-04-22T05:21:18.326Z,53.25
2019-04-22T05:23:55.097Z,52.88
2019-04-22T05:26:27.965Z,52.31
2019-04-22T05:28:49.908Z,54.42
2019-04-22T05:31:22.922Z,52.84
2019-04-22T05:33:57.838Z,52.20
2019-04-22T05:36:28.531Z,51.28
2019-04-22T05:39:04.550Z,51.09
2019-04-22T05:41:32.357Z,50.81
2019-04-22T05:44:02.842Z,50.33
2019-04-22T05:46:28.563Z,49.68
2019-04-22T05:49:09.868Z,49.08
2019-04-22T05:51:37.082Z,47.52
2019-04-22T05:54:13.295Z,46.97
2019-04-22T05:59:11.777Z,46.50
2019-04-22T06:02:01.239Z,46.24
2019-04-22T06:04:11.321Z,45.02
2019-04-22T06:06:37.060Z,44.49
2019-04-22T06:09:22.854Z,44.44
2019-04-22T06:11:42.748Z,44.31
2019-04-22T06:14:14.951Z,44.37
2019-04-22T06:19:18.525Z,44.84
2019-04-22T06:21:49.091Z,44.38
2019-04-22T06:24:23.291Z,44.35
2019-04-22T06:29:26.742Z,43.47
2019-04-22T06:32:17.872Z,43.07
2019-04-22T06:34:30.597Z,42.92
2019-04-22T06:39:44.838Z,42.58
2019-04-22T06:42:08.126Z,42.47
2019-04-22T06:44:36.853Z,42.04
2019-04-22T06:47:10.508Z,41.43
2019-04-22T06:52:13.937Z,40.84
2019-04-22T06:54:42.428Z,40.61
2019-04-22T06:57:15.020Z,40.01
2019-04-22T06:59:47.437Z,39.77
2019-04-22T07:02:16.566Z,39.63
2019-04-22T07:04:53.811Z,38.95
2019-04-22T07:07:22.059Z,38.74
2019-04-22T07:12:24.343Z,38.47
2019-04-22T07:14:53.496Z,38.36
2019-04-22T07:17:33.224Z,37.80
2019-04-22T07:19:58.494Z,36.85
2019-04-22T07:22:27.932Z,36.46
2019-04-22T07:24:58.813Z,36.10
2019-04-22T07:27:45.998Z,35.71
2019-04-22T07:30:09.172Z,35.54
2019-04-22T07:35:08.776Z,34.89
2019-04-22T07:37:51.516Z,34.83
2019-04-22T07:40:10.262Z,34.90
2019-04-22T07:45:10.302Z,34.93
2019-04-22T07:47:47.912Z,34.61
2019-04-22T07:50:30.766Z,34.37
2019-04-22T07:52:44.980Z,34.38
2019-04-22T07:55:11.687Z,34.06
2019-04-22T07:58:05.270Z,33.77
2019-04-22T08:00:22.675Z,33.83
2019-04-22T08:02:50.542Z,33.88
2019-04-22T08:05:26.575Z,33.84
2019-04-22T08:08:02.682Z,32.97
2019-04-22T08:10:30.299Z,32.14
2019-04-22T08:12:57.697Z,31.97
2019-04-22T08:15:31.230Z,31.71
2019-04-22T08:20:33.949Z,30.95
2019-04-22T08:23:09.606Z,30.61
2019-04-22T08:25:38.873Z,29.75
2019-04-22T08:28:11.809Z,29.74
2019-04-22T08:33:15.958Z,29.12
2019-04-22T08:36:00.769Z,28.67
2019-04-22T08:38:14.911Z,28.27
2019-04-22T08:41:23.564Z,28.24
2019-04-22T08:43:56.122Z,27.93
2019-04-22T08:46:25.264Z,27.57
2019-04-22T08:48:49.513Z,28.27
2019-04-22T08:51:23.519Z,27.16
2019-04-22T08:53:57.238Z,27.18
2019-04-22T08:56:30.953Z,27.42
2019-04-22T08:58:59.932Z,27.58
2019-04-22T09:03:58.546Z,27.13
2019-04-22T09:06:39.895Z,26.67
2019-04-22T09:09:01.429Z,26.79
2019-04-22T09:11:38.769Z,26.16
2019-04-22T09:14:07.907Z,26.25
2019-04-22T09:19:08.878Z,25.88
2019-04-22T09:21:38.878Z,26.06
2019-04-22T09:24:10.631Z,25.63
2019-04-22T09:26:45.332Z,24.41
2019-04-22T09:29:19.234Z,24.42
2019-04-22T09:31:44.671Z,23.21
2019-04-22T09:34:15.028Z,23.65
2019-04-22T09:37:08.183Z,23.71
2019-04-22T09:39:19.335Z,22.99
2019-04-22T09:41:55.411Z,23.18
2019-04-22T09:44:16.145Z,23.38
2019-04-22T09:51:52.533Z,23.27
2019-04-22T09:54:30.964Z,23.27
2019-04-22T09:56:59.658Z,22.42
2019-04-22T09:59:32.674Z,22.48
2019-04-22T10:02:13.313Z,22.21
2019-04-22T10:04:34.715Z,22.07
2019-04-22T10:07:05.668Z,22.03
2019-04-22T10:09:57.629Z,21.88
2019-04-22T10:12:10.388Z,21.77
2019-04-22T10:14:40.043Z,21.92
2019-04-22T10:17:06.611Z,21.86
2019-04-22T10:19:41.259Z,20.94
2019-04-22T10:22:19.934Z,20.87
2019-04-22T10:24:47.622Z,21.37
2019-04-22T10:27:16.216Z,21.00
2019-04-22T10:29:54.048Z,21.82
2019-04-22T10:32:14.824Z,21.46
2019-04-22T10:34:35.013Z,21.48
2019-04-22T10:37:02.638Z,21.55
2019-04-22T10:39:39.661Z,21.82
2019-04-22T10:42:01.197Z,22.11
2019-04-22T10:44:30.993Z,21.96
2019-04-22T10:47:02.258Z,21.61
2019-04-22T10:49:32.370Z,21.86
2019-04-22T10:52:02.684Z,21.49
2019-04-22T10:54:33.686Z,21.35
2019-04-22T10:57:03.793Z,20.46
2019-04-22T10:59:34.355Z,19.31
2019-04-22T11:02:05.406Z,18.24
2019-04-22T11:04:36.532Z,18.01
2019-04-22T11:07:09.054Z,16.36
2019-04-22T11:09:49.429Z,16.53
2019-04-22T11:12:13.641Z,16.24
2019-04-22T11:14:43.211Z,16.20
2019-04-22T11:17:11.746Z,16.96
2019-04-22T11:19:41.615Z,16.75
2019-04-22T11:22:18.571Z,16.96
2019-04-22T11:24:42.622Z,17.08
2019-04-22T11:27:12.645Z,17.47
2019-04-22T11:29:43.910Z,16.05
2019-04-22T11:32:14.746Z,16.17
2019-04-22T11:34:44.954Z,16.53
2019-04-22T11:37:16.478Z,17.01
2019-04-22T11:39:48.123Z,16.80
2019-04-22T11:42:18.270Z,16.65
2019-04-22T11:44:48.095Z,16.75
2019-04-22T11:47:19.178Z,16.27
2019-04-22T11:49:50.000Z,16.13
2019-04-22T11:52:20.487Z,14.55
2019-04-22T11:54:50.657Z,15.28
2019-04-22T11:57:21.174Z,15.81
2019-04-22T11:59:51.156Z,15.47
2019-04-22T12:02:23.375Z,15.47
2019-04-22T12:04:54.025Z,15.04
2019-04-22T12:07:24.753Z,15.11
2019-04-22T12:09:55.584Z,14.99
2019-04-22T12:12:27.829Z,15.56
2019-04-22T12:14:58.673Z,15.77
2019-04-22T12:17:29.851Z,15.92
2019-04-22T12:20:00.223Z,15.95
2019-04-22T12:22:33.823Z,16.90
2019-04-22T12:25:08.081Z,17.11
2019-04-22T12:27:38.982Z,17.40
2019-04-22T12:30:16.851Z,18.00
2019-04-22T12:32:46.439Z,18.29
2019-04-22T12:35:17.757Z,18.14
2019-04-22T12:37:53.294Z,17.82
2019-04-22T12:40:31.452Z,17.52
2019-04-22T12:42:51.364Z,16.97
2019-04-22T12:45:22.437Z,17.36
2019-04-22T12:47:53.817Z,15.92
2019-04-22T12:50:28.321Z,15.61
2019-04-22T12:52:59.593Z,14.97
2019-04-22T12:55:27.947Z,14.59
2019-04-22T12:58:00.805Z,14.85
2019-04-22T13:00:30.197Z,15.43
2019-04-22T13:03:01.114Z,16.17
2019-04-22T13:05:31.353Z,15.62
2019-04-22T13:08:01.998Z,17.25
2019-04-22T13:10:41.527Z,16.96
2019-04-22T13:13:04.897Z,16.86
2019-04-22T13:15:35.162Z,17.30
2019-04-22T13:18:14.923Z,17.12
2019-04-22T13:20:36.545Z,17.53
2019-04-22T13:23:07.772Z,17.36
2019-04-22T13:25:38.887Z,17.50
2019-04-22T13:28:09.344Z,17.06
2019-04-22T13:30:40.913Z,16.81
2019-04-22T13:33:10.902Z,17.30
2019-04-22T13:35:41.635Z,17.56
2019-04-22T13:38:12.959Z,16.74
2019-04-22T13:40:59.528Z,16.66
2019-04-22T13:43:14.982Z,16.54
2019-04-22T13:45:45.684Z,16.35
2019-04-22T13:48:35.901Z,16.39
2019-04-22T13:51:18.592Z,15.80
2019-04-22T13:56:23.801Z,16.13
2019-04-22T13:58:35.454Z,15.68
2019-04-22T14:00:54.603Z,16.14
2019-04-22T14:03:36.077Z,15.90
2019-04-22T14:06:09.084Z,16.23
2019-04-22T14:08:39.145Z,15.84
2019-04-22T14:11:17.619Z,15.55
2019-04-22T14:13:40.127Z,15.99
2019-04-22T14:16:10.959Z,15.63
2019-04-22T14:18:41.535Z,15.92
2019-04-22T14:21:12.493Z,15.30
2019-04-22T14:23:42.560Z,14.75
2019-04-22T14:26:13.367Z,14.99
2019-04-22T14:28:43.762Z,15.25
2019-04-22T14:31:14.768Z,15.44
2019-04-22T14:33:50.015Z,14.73
2019-04-22T14:36:17.150Z,14.78
2019-04-22T14:38:48.027Z,14.85
2019-04-22T14:41:35.821Z,15.24
2019-04-22T14:44:49.604Z,15.35
2019-04-22T14:46:53.625Z,15.76
2019-04-22T14:49:21.537Z,16.02
2019-04-22T14:51:47.026Z,15.62
2019-04-22T14:54:10.083Z,15.73
2019-04-22T14:56:26.569Z,15.33
2019-04-22T14:58:56.667Z,14.64
2019-04-22T15:01:26.701Z,15.03
2019-04-22T15:03:56.650Z,15.08
2019-04-22T15:06:26.402Z,15.29
2019-04-22T15:08:59.252Z,15.60
2019-04-22T15:11:28.878Z,16.10
2019-04-22T15:13:59.220Z,16.52
2019-04-22T15:16:32.029Z,16.62
2019-04-22T15:19:04.096Z,17.14
2019-04-22T15:21:34.552Z,17.03
2019-04-22T15:24:22.988Z,16.05
2019-04-22T15:26:56.369Z,16.65
2019-04-22T15:29:27.312Z,17.03
2019-04-22T15:31:57.649Z,17.69
2019-04-22T15:34:28.284Z,17.11
2019-04-22T15:36:58.195Z,15.67
2019-04-22T15:39:29.268Z,13.72
2019-04-22T15:42:09.769Z,12.23
2019-04-22T15:44:31.916Z,11.54
2019-04-22T15:47:02.815Z,12.55
2019-04-22T15:49:34.053Z,13.55
2019-04-22T15:52:06.091Z,14.99
2019-04-22T15:54:35.399Z,15.87
2019-04-22T15:57:06.570Z,16.37
2019-04-22T15:59:54.021Z,17.25
2019-04-22T16:02:08.640Z,17.07
2019-04-22T16:04:41.010Z,17.67
2019-04-22T16:07:11.080Z,17.81
2019-04-22T16:09:41.623Z,17.94
2019-04-22T16:12:19.379Z,18.58
2019-04-22T16:14:47.759Z,18.39
2019-04-22T16:17:14.709Z,18.58
2019-04-22T16:19:45.156Z,18.68
2019-04-22T16:22:19.138Z,18.94
2019-04-22T16:24:58.259Z,19.62
2019-04-22T16:27:30.254Z,19.40
2019-04-22T16:30:01.301Z,19.74
2019-04-22T16:32:31.957Z,19.98
2019-04-22T16:35:01.947Z,20.28
2019-04-22T16:37:32.753Z,20.53
2019-04-22T16:40:03.143Z,20.36
2019-04-22T16:42:42.643Z,20.53
2019-04-22T16:45:07.530Z,20.69
2019-04-22T16:47:37.487Z,20.73
2019-04-22T16:50:08.151Z,20.75
2019-04-22T16:52:38.004Z,20.97
2019-04-22T16:55:08.749Z,21.20
2019-04-22T16:57:39.807Z,20.89
2019-04-22T17:00:11.178Z,21.15
2019-04-22T17:02:59.255Z,21.10
2019-04-22T17:05:35.717Z,21.04
2019-04-22T17:08:06.026Z,21.07
2019-04-22T17:10:37.714Z,21.03
2019-04-22T17:13:11.957Z,20.92
2019-04-22T17:15:39.662Z,21.12
2019-04-22T17:18:09.737Z,21.54
2019-04-22T17:20:40.438Z,21.69
2019-04-22T17:23:11.593Z,21.66
2019-04-22T17:25:42.607Z,21.96
2019-04-22T17:28:13.253Z,21.46
2019-04-22T17:30:43.780Z,21.64
2019-04-22T17:33:14.617Z,21.87
2019-04-22T17:35:46.419Z,22.06
2019-04-22T17:38:24.791Z,22.28
2019-04-22T17:41:02.588Z,22.66
2019-04-22T17:43:47.994Z,22.79
2019-04-22T17:46:25.184Z,22.92
2019-04-22T17:49:10.492Z,23.29
2019-04-22T17:51:59.535Z,23.23
2019-04-22T17:54:28.254Z,23.20
2019-04-22T17:56:43.691Z,23.67
2019-04-22T17:59:16.923Z,23.47
2019-04-22T18:01:43.875Z,23.56
2019-04-22T18:03:59.506Z,23.77
2019-04-22T18:06:55.204Z,23.77
2019-04-22T18:09:21.098Z,24.00
2019-04-22T18:11:51.199Z,24.32
2019-04-22T18:14:39.951Z,24.21
2019-04-22T18:16:51.982Z,24.44
2019-04-22T18:19:19.349Z,24.26
2019-04-22T18:21:51.732Z,24.49
2019-04-22T18:24:15.682Z,24.78
2019-04-22T18:26:57.721Z,24.85
2019-04-22T18:29:31.577Z,25.08
2019-04-22T18:31:52.487Z,25.24
2019-04-22T18:34:25.544Z,25.12
2019-04-22T18:36:58.964Z,25.54
2019-04-22T18:39:42.331Z,25.68
2019-04-22T18:42:03.111Z,25.96
2019-04-22T18:44:41.430Z,26.41
2019-04-22T18:47:10.723Z,26.32
2019-04-22T18:49:37.553Z,26.41
2019-04-22T18:52:32.954Z,26.33
2019-04-22T18:55:14.728Z,26.47
2019-04-22T18:58:01.127Z,26.73
2019-04-22T19:00:29.209Z,27.18
2019-04-22T19:03:07.219Z,27.29
2019-04-22T19:05:49.417Z,27.27
2019-04-22T19:11:07.341Z,27.50
2019-04-22T19:16:13.016Z,27.75
2019-04-22T19:18:34.633Z,27.91
2019-04-22T19:21:01.220Z,28.27
2019-04-22T19:23:32.205Z,28.45
2019-04-22T19:26:06.083Z,28.41
2019-04-22T19:31:09.402Z,28.94
2019-04-22T19:33:39.928Z,28.88
2019-04-22T19:36:10.771Z,29.01
2019-04-22T19:38:28.579Z,29.28
2019-04-22T19:43:46.197Z,29.40
2019-04-22T19:46:15.248Z,29.58
2019-04-22T19:48:50.106Z,29.68
2019-04-22T19:51:23.576Z,29.53
2019-04-22T19:53:54.359Z,29.81
2019-04-22T19:56:11.774Z,29.63
2019-04-22T19:58:45.531Z,30.14
2019-04-22T20:01:26.926Z,30.15
2019-04-22T20:04:22.988Z,30.33
2019-04-22T20:06:53.326Z,30.45
2019-04-22T20:09:29.943Z,30.61
2019-04-22T20:11:57.603Z,30.86
2019-04-22T20:14:33.375Z,30.91
2019-04-22T20:16:54.743Z,31.30
2019-04-22T20:19:41.577Z,31.61
2019-04-22T20:22:03.351Z,31.94
2019-04-22T20:24:22.661Z,32.39
2019-04-22T20:27:09.116Z,32.45
2019-04-22T20:29:54.232Z,32.97
2019-04-22T20:32:12.014Z,33.25
2019-04-22T20:34:44.631Z,33.41
2019-04-22T20:37:16.570Z,33.43
2019-04-22T20:39:49.118Z,33.63
2019-04-22T20:45:07.097Z,33.89
2019-04-22T20:47:16.586Z,34.20
2019-04-22T20:49:48.752Z,34.28
2019-04-22T20:52:26.445Z,34.76
2019-04-22T20:54:52.955Z,34.71
2019-04-22T20:57:24.066Z,35.05
2019-04-22T20:59:51.180Z,35.30
2019-04-22T21:02:18.199Z,35.19
2019-04-22T21:04:47.725Z,35.35
2019-04-22T21:07:23.724Z,35.58
2019-04-22T21:09:59.485Z,35.71
2019-04-22T21:12:26.600Z,36.02
2019-04-22T21:15:06.831Z,36.46
2019-04-22T21:17:34.746Z,36.32
2019-04-22T21:20:15.570Z,36.40
2019-04-22T21:22:38.993Z,36.37
2019-04-22T21:25:01.961Z,36.63
2019-04-22T21:27:45.082Z,36.78
2019-04-22T21:30:03.312Z,36.79
2019-04-22T21:32:38.881Z,37.16
2019-04-22T21:35:19.830Z,37.21
2019-04-22T21:37:55.829Z,37.28
2019-04-22T21:40:19.884Z,37.34
2019-04-22T21:42:57.324Z,37.61
2019-04-22T21:45:15.171Z,37.66
2019-04-22T21:47:58.840Z,37.72
2019-04-22T21:53:03.552Z,38.17
2019-04-22T21:55:31.807Z,38.22
2019-04-22T21:58:14.846Z,38.63
2019-04-22T22:00:53.990Z,38.77
2019-04-22T22:03:19.176Z,38.91
2019-04-22T22:05:40.119Z,39.03
2019-04-22T22:08:22.919Z,39.10
2019-04-22T22:10:52.258Z,39.44
2019-04-22T22:13:16.974Z,40.03
2019-04-22T22:15:52.083Z,40.01
2019-04-22T22:18:20.034Z,40.18
2019-04-22T22:21:12.856Z,40.42
2019-04-22T22:23:34.439Z,40.88
2019-04-22T22:25:55.611Z,41.15
2019-04-22T22:28:45.443Z,41.35
2019-04-22T22:31:08.845Z,41.49
2019-04-22T22:33:39.737Z,41.75
2019-04-22T22:36:05.026Z,41.87
2019-04-22T22:38:29.722Z,42.32
2019-04-22T22:40:49.928Z,42.34
2019-04-22T22:43:27.880Z,42.56
2019-04-22T22:46:05.938Z,42.73
2019-04-22T22:48:43.394Z,42.91
2019-04-22T22:51:15.593Z,43.20
2019-04-22T22:54:04.830Z,43.16
2019-04-22T22:56:18.986Z,43.36
2019-04-22T22:58:52.693Z,43.57
2019-04-22T23:01:28.697Z,43.71
2019-04-22T23:03:55.958Z,43.87
2019-04-22T23:06:27.601Z,44.13
2019-04-22T23:08:56.151Z,44.23
2019-04-22T23:11:50.800Z,44.46
2019-04-22T23:13:57.784Z,44.56
2019-04-22T23:16:18.229Z,44.67
2019-04-22T23:18:57.613Z,45.02
2019-04-22T23:21:35.145Z,45.09
2019-04-22T23:24:16.055Z,45.37
2019-04-22T23:26:54.016Z,45.46
2019-04-22T23:29:26.315Z,45.85
2019-04-22T23:32:01.709Z,45.91
2019-04-22T23:34:32.916Z,46.28
2019-04-22T23:37:24.508Z,46.11
2019-04-22T23:40:01.673Z,46.41
2019-04-22T23:42:27.304Z,46.80
2019-04-22T23:45:04.370Z,46.99
2019-04-22T23:47:29.280Z,47.03
2019-04-22T23:50:09.614Z,47.29
2019-04-22T23:52:43.565Z,47.42
2019-04-22T23:55:14.387Z,47.52
2019-04-22T23:57:46.239Z,47.55
